TAF and METAR

Could not understand the following METAR

YBDV 170300Z AUTO 12008KT //// // ////// 20/06 Q1023
No TAF available for Birdsville Airport